^^
Station Historical Data
Daily Summary for July 19, 2017 Units:  Metric    English   Both
« Previous Day
Next Day »
Daily Weekly Monthly Yearly Custom
  High: Low: Average:
Temperature: 23.3 °C 3.1 °C 8 °C
Dew Point: -3.9 °C -8.5 °C -6.9 °C
Humidity: 47% 14% 36%
Wind Speed: 19.5km/h 0km/h 1.1km/h
Wind Gust: 20.9km/h - -
Wind- - North
Pressure: 1027.7 hPa 1023.6 hPa -
Precipitation: 0 mm    
Historical Graphs
 
 
Tabular Data for July 19, 2017
Time Temperature Dew Point Pressure Wind Wind Speed Wind Gust Humidity Rainfall Rate (Hourly) solar Conditions
00:05 5.8 °C -7.1 °C 1026 hPa Calm     39% 0 mm 0.0 W/m2
00:35 4.9 °C -6.6 °C 1026.3 hPa Calm     43% 0 mm 0.0 W/m2
00:45 4.8 °C -6.7 °C 1026.3 hPa Calm     43% 0 mm 0.0 W/m2
00:51 4.5 °C -6.4 °C 1026.3 hPa Calm     45% 0 mm 0.0 W/m2
00:56 4.5 °C -6.4 °C 1026.3 hPa Calm     45% 0 mm 0.0 W/m2
01:01 4.6 °C -6.6 °C 1026.3 hPa Calm     44% 0 mm 0.0 W/m2
01:06 4.6 °C -6.9 °C 1026.3 hPa Calm     43% 0 mm 0.0 W/m2
01:12 4.4 °C -7.1 °C 1026.3 hPa Calm     43% 0 mm 0.0 W/m2
01:17 4.4 °C -6.8 °C 1026.3 hPa Calm     44% 0 mm 0.0 W/m2
01:22 4.3 °C -6.9 °C 1026.3 hPa Calm     44% 0 mm 0.0 W/m2
01:27 4.2 °C -7.9 °C 1026.3 hPa Calm     41% 0 mm 0.0 W/m2
01:33 4.1 °C -7.4 °C 1026.3 hPa Calm     43% 0 mm 0.0 W/m2
01:38 3.9 °C -7.5 °C 1026.3 hPa Calm     43% 0 mm 0.0 W/m2
01:43 3.8 °C -8.3 °C 1026 hPa Calm     41% 0 mm 0.0 W/m2
01:49 3.6 °C -7.8 °C 1026 hPa Calm     43% 0 mm 0.0 W/m2
01:54 3.4 °C -7.7 °C 1026 hPa Calm     44% 0 mm 0.0 W/m2
01:59 3.4 °C -7.4 °C 1026 hPa Calm     45% 0 mm 0.0 W/m2
02:04 3.3 °C -6.9 °C 1026 hPa Calm     47% 0 mm 0.0 W/m2
02:09 3.6 °C -6.9 °C 1026 hPa Calm     46% 0 mm 0.0 W/m2
02:14 3.7 °C -7.4 °C 1026 hPa Calm     44% 0 mm 0.0 W/m2
02:19 4 °C -7.5 °C 1026 hPa Calm     43% 0 mm 0.0 W/m2
02:24 4.1 °C -7.7 °C 1026 hPa Calm     42% 0 mm 0.0 W/m2
02:30 4.1 °C -7.7 °C 1026 hPa Calm     42% 0 mm 0.0 W/m2
02:35 4.2 °C -7.6 °C 1026 hPa Calm     42% 0 mm 0.0 W/m2
02:40 4.1 °C -8 °C 1026 hPa Calm     41% 0 mm 0.0 W/m2
02:46 3.8 °C -8.3 °C 1026 hPa Calm     41% 0 mm 0.0 W/m2
02:51 3.7 °C -8.3 °C 1026 hPa Calm     41% 0 mm 0.0 W/m2
02:56 3.5 °C -8.5 °C 1026 hPa Calm     41% 0 mm 0.0 W/m2
03:06 3.4 °C -8.3 °C 1026.3 hPa Calm   6.4 km/h 42% 0 mm 0.0 W/m2
03:11 3.4 °C -8.3 °C 1026 hPa Calm   3.2 km/h 42% 0 mm 0.0 W/m2
03:16 3.3 °C -8.4 °C 1026.3 hPa Calm     42% 0 mm 0.0 W/m2
03:22 3.3 °C -8.4 °C 1026.3 hPa North 1.4 km/h 1.6 km/h 42% 0 mm 0.0 W/m2
03:27 3.3 °C -8.4 °C 1026 hPa Calm     42% 0 mm 0.0 W/m2
03:32 3.3 °C -8.1 °C 1026 hPa North 3.2 km/h 6.4 km/h 43% 0 mm 0.0 W/m2
03:42 3.8 °C -7.6 °C 1026 hPa Calm     43% 0 mm 0.0 W/m2
03:47 4.1 °C -7.7 °C 1026 hPa Calm     42% 0 mm 0.0 W/m2
03:52 4.5 °C -7.6 °C 1025.6 hPa Calm     41% 0 mm 0.0 W/m2
03:57 4.7 °C -7.4 °C 1025.6 hPa Calm     41% 0 mm 0.0 W/m2
04:02 4.7 °C -7.8 °C 1025.6 hPa Calm     40% 0 mm 0.0 W/m2
04:07 4.6 °C -7.8 °C 1025.6 hPa Calm     40% 0 mm 0.0 W/m2
04:12 4.2 °C -8.2 °C 1025.6 hPa Calm     40% 0 mm 0.0 W/m2
04:18 4 °C -8.1 °C 1025.6 hPa Calm     41% 0 mm 0.0 W/m2
04:22 3.9 °C -8.2 °C 1025.6 hPa Calm     41% 0 mm 0.0 W/m2
04:29 4.1 °C -7.7 °C 1025.6 hPa Calm     42% 0 mm 0.0 W/m2
05:00 6.1 °C -6.8 °C 1025.6 hPa Calm     39% 0 mm 0.0 W/m2
05:05 6.2 °C -7.1 °C 1025.6 hPa Calm     38% 0 mm 0.0 W/m2
05:10 6.3 °C -7.3 °C 1026 hPa Calm     37% 0 mm 0.0 W/m2
05:16 6.1 °C -7.5 °C 1026 hPa Calm     37% 0 mm 0.0 W/m2
05:21 5.9 °C -7.3 °C 1026 hPa Calm     38% 0 mm 0.0 W/m2
05:26 5.8 °C -7.4 °C 1026.3 hPa Calm     38% 0 mm 0.0 W/m2
05:36 5.2 °C -7.6 °C 1026.3 hPa Calm     39% 0 mm 0.0 W/m2
05:51 4.4 °C -7.7 °C 1026.6 hPa Calm     41% 0 mm 0.0 W/m2
06:02 4.2 °C -7.6 °C 1026.6 hPa Calm     42% 0 mm 0.0 W/m2
06:07 4.2 °C -7.6 °C 1026.6 hPa Calm     42% 0 mm 0.0 W/m2
06:12 4.3 °C -7.5 °C 1026.6 hPa Calm     42% 0 mm 0.0 W/m2
06:17 4.1 °C -8 °C 1026.6 hPa Calm     41% 0 mm 0.0 W/m2
06:23 3.8 °C -7.9 °C 1026.6 hPa Calm     42% 0 mm 0.0 W/m2
06:28 3.5 °C -7.9 °C 1026.6 hPa Calm     43% 0 mm 0.0 W/m2
06:35 3.3 °C -8.1 °C 1026.6 hPa Calm     43% 0 mm 0.0 W/m2
06:41 3.1 °C -8 °C 1026.6 hPa Calm     44% 0 mm 0.0 W/m2
06:49 3.2 °C -7.9 °C 1026.6 hPa Calm     44% 0 mm 9.0 W/m2
07:05 3.4 °C -8 °C 1027 hPa Calm     43% 0 mm 14.0 W/m2
07:11 3.4 °C -8 °C 1027 hPa Calm     43% 0 mm 14.0 W/m2
07:20 3.8 °C -7.3 °C 1027 hPa Calm     44% 0 mm 23.0 W/m2
07:36 4.8 °C -7 °C 1027 hPa Calm     42% 0 mm 121.0 W/m2
07:56 8.6 °C -6 °C 1026.6 hPa North 1.4 km/h 11.3 km/h 35% 0 mm 181.0 W/m2
08:06 10.7 °C -5.3 °C 1026.6 hPa North 1.4 km/h 17.7 km/h 32% 0 mm 236.0 W/m2
08:21 11.8 °C -4.8 °C 1026.6 hPa North 6.4 km/h 14.5 km/h 31% 0 mm 279.0 W/m2
08:36 12.4 °C -4.7 °C 1027 hPa North 3.2 km/h 8 km/h 30% 0 mm 323.0 W/m2
08:57 13 °C -4.6 °C 1027.3 hPa North 7.9 km/h 12.9 km/h 29% 0 mm 362.0 W/m2
09:13 13.5 °C -4.7 °C 1027.3 hPa North 9.7 km/h 14.5 km/h 28% 0 mm 399.0 W/m2
09:27 14.4 °C -4.4 °C 1027.3 hPa Calm   12.9 km/h 27% 0 mm 438.0 W/m2
09:42 14.6 °C -4.2 °C 1027.7 hPa North 9.7 km/h 12.9 km/h 27% 0 mm 468.0 W/m2
09:52 14.9 °C -3.9 °C 1027.3 hPa North 13 km/h 17.7 km/h 27% 0 mm 492.0 W/m2
10:03 15.1 °C -4.3 °C 1027.3 hPa North 11.1 km/h 14.5 km/h 26% 0 mm 508.0 W/m2
10:25 15.7 °C -4.3 °C 1027.3 hPa North 14.3 km/h 19.3 km/h 25% 0 mm 552.0 W/m2
10:35 16 °C -4 °C 1027.3 hPa North 19.5 km/h 20.9 km/h 25% 0 mm 564.0 W/m2
10:43 16.3 °C -4.3 °C 1027.3 hPa Calm   9.7 km/h 24% 0 mm 578.0 W/m2
15:24 22.8 °C -5.2 °C 1023.6 hPa Calm     15% 0 mm 313.0 W/m2
15:39 22.9 °C -6 °C 1023.6 hPa Calm   6.4 km/h 14% 0 mm 271.0 W/m2
15:48 22.9 °C -6 °C 1023.6 hPa Calm     14% 0 mm 241.0 W/m2
15:58 22.9 °C -6 °C 1023.6 hPa Calm     14% 0 mm 204.0 W/m2
16:08 23.3 °C -5.7 °C 1023.6 hPa Calm     14% 0 mm 162.0 W/m2
16:19 23 °C -5.9 °C 1023.6 hPa Calm     14% 0 mm 127.0 W/m2
16:30 22.9 °C -6 °C 1023.6 hPa Calm     14% 0 mm 91.0 W/m2
16:40 22.8 °C -6.1 °C 1023.6 hPa Calm     14% 0 mm 60.0 W/m2
16:51 22.7 °C -6.2 °C 1023.6 hPa Calm     14% 0 mm 33.0 W/m2
17:07 22.2 °C -6.6 °C 1023.9 hPa Calm     14% 0 mm 9.0 W/m2
17:20 20.4 °C -6.3 °C 1023.9 hPa Calm     16% 0 mm 0.0 W/m2
17:31 19.6 °C -6.9 °C 1023.9 hPa Calm     16% 0 mm 0.0 W/m2
Canyon Roadhouse, Fishriver Canyon, Namibia
Compliments of Weather Underground - 2 mb